createdAt,value
2023-05-11T00:02:23.260Z,41.28
2023-05-11T00:04:49.885Z,41.30
2023-05-11T00:07:16.495Z,41.31
2023-05-11T00:09:43.031Z,41.31
2023-05-11T00:12:09.539Z,41.43
2023-05-11T00:14:36.155Z,41.33
2023-05-11T00:17:02.718Z,41.40
2023-05-11T00:19:31.509Z,41.43
2023-05-11T00:21:59.039Z,41.59
2023-05-11T00:24:26.390Z,41.68
2023-05-11T00:26:52.942Z,41.74
2023-05-11T00:29:20.020Z,41.72
2023-05-11T00:31:48.184Z,41.82
2023-05-11T00:34:15.931Z,41.86
2023-05-11T00:36:43.148Z,41.94
2023-05-11T00:39:10.463Z,41.97
2023-05-11T00:41:37.010Z,42.17
2023-05-11T00:44:03.682Z,42.10
2023-05-11T00:46:31.261Z,42.17
2023-05-11T00:48:58.433Z,42.38
2023-05-11T00:51:24.988Z,42.28
2023-05-11T00:53:52.120Z,42.38
2023-05-11T00:56:20.065Z,42.53
2023-05-11T00:58:46.742Z,42.59
2023-05-11T01:01:14.883Z,42.52
2023-05-11T01:03:41.599Z,42.67
2023-05-11T01:06:44.635Z,42.69
2023-05-11T01:09:56.521Z,42.72
2023-05-11T01:12:55.953Z,42.74
2023-05-11T01:15:48.147Z,42.79
2023-05-11T01:18:33.644Z,42.89
2023-05-11T01:21:05.784Z,42.93
2023-05-11T01:23:51.104Z,42.96
2023-05-11T01:26:33.354Z,42.94
2023-05-11T01:29:38.066Z,43.11
2023-05-11T01:32:10.308Z,43.13
2023-05-11T01:34:40.518Z,43.23
2023-05-11T01:37:13.715Z,43.17
2023-05-11T01:39:50.772Z,43.22
2023-05-11T01:42:22.738Z,43.24
2023-05-11T01:44:53.480Z,43.32
2023-05-11T01:47:23.409Z,43.48
2023-05-11T01:49:51.679Z,43.43
2023-05-11T01:52:23.638Z,43.49
2023-05-11T01:54:52.955Z,43.45
2023-05-11T01:57:21.340Z,43.59
2023-05-11T01:59:50.264Z,43.78
2023-05-11T02:02:18.695Z,43.78
2023-05-11T02:04:46.893Z,43.75
2023-05-11T02:07:14.938Z,43.78
2023-05-11T02:09:43.066Z,43.87
2023-05-11T02:12:11.784Z,43.89
2023-05-11T02:14:39.600Z,43.98
2023-05-11T02:17:15.639Z,44.07
2023-05-11T02:19:44.279Z,44.10
2023-05-11T02:22:12.617Z,44.02
2023-05-11T02:24:40.074Z,44.18
2023-05-11T02:27:07.541Z,44.14
2023-05-11T02:29:34.489Z,44.16
2023-05-11T02:32:12.478Z,44.24
2023-05-11T02:34:41.993Z,44.27
2023-05-11T02:37:20.792Z,44.36
2023-05-11T02:39:52.835Z,44.42
2023-05-11T02:42:21.890Z,44.47
2023-05-11T02:45:03.721Z,44.53
2023-05-11T02:47:36.558Z,44.71
2023-05-11T02:50:08.752Z,44.64
2023-05-11T02:52:41.558Z,44.70
2023-05-11T02:55:09.386Z,44.83
2023-05-11T02:57:35.937Z,44.71
2023-05-11T03:00:05.456Z,44.69
2023-05-11T03:02:32.090Z,44.67
2023-05-11T03:04:58.808Z,44.81
2023-05-11T03:07:25.816Z,44.81
2023-05-11T03:09:52.889Z,44.73
2023-05-11T03:12:21.152Z,44.82
2023-05-11T03:14:48.486Z,44.97
2023-05-11T03:17:16.733Z,44.90
2023-05-11T03:19:43.689Z,45.01
2023-05-11T03:22:11.055Z,45.04
2023-05-11T03:24:38.495Z,45.03
2023-05-11T03:27:07.831Z,45.23
2023-05-11T03:29:38.353Z,45.18
2023-05-11T03:32:05.490Z,45.11
2023-05-11T03:34:33.949Z,45.15
2023-05-11T03:37:01.116Z,45.17
2023-05-11T03:39:31.183Z,45.10
2023-05-11T03:42:00.175Z,45.09
2023-05-11T03:44:28.841Z,45.11
2023-05-11T03:46:57.734Z,45.13
2023-05-11T03:49:25.527Z,45.13
2023-05-11T03:51:53.219Z,45.21
2023-05-11T03:54:20.607Z,45.17
2023-05-11T03:56:47.206Z,45.21
2023-05-11T03:59:17.342Z,45.15
2023-05-11T04:01:44.253Z,45.26
2023-05-11T04:04:11.988Z,45.23
2023-05-11T04:06:38.679Z,45.24
2023-05-11T04:09:16.922Z,45.22
2023-05-11T04:11:43.480Z,45.25
2023-05-11T04:14:09.978Z,45.18
2023-05-11T04:16:36.648Z,45.24
2023-05-11T04:19:03.253Z,45.29
2023-05-11T04:21:29.862Z,45.27
2023-05-11T04:23:56.621Z,45.20
2023-05-11T04:26:24.222Z,45.19
2023-05-11T04:28:50.768Z,45.17
2023-05-11T04:31:17.285Z,45.15
2023-05-11T04:33:43.873Z,45.16
2023-05-11T04:36:11.114Z,45.08
2023-05-11T04:38:38.334Z,45.04
2023-05-11T04:41:08.923Z,45.06
2023-05-11T04:43:36.399Z,45.06
2023-05-11T04:46:02.944Z,44.90
2023-05-11T04:48:30.138Z,44.90
2023-05-11T04:50:58.031Z,44.94
2023-05-11T04:53:28.612Z,44.92
2023-05-11T04:55:55.331Z,44.87
2023-05-11T04:58:21.941Z,44.81
2023-05-11T05:00:49.054Z,44.79
2023-05-11T05:03:15.695Z,44.79
2023-05-11T05:05:42.394Z,44.78
2023-05-11T05:08:09.925Z,44.67
2023-05-11T05:10:36.523Z,44.68
2023-05-11T05:13:03.086Z,44.58
2023-05-11T05:15:30.763Z,44.52
2023-05-11T05:17:58.056Z,44.44
2023-05-11T05:20:24.890Z,44.36
2023-05-11T05:22:51.869Z,44.36
2023-05-11T05:25:18.882Z,44.26
2023-05-11T05:27:45.887Z,44.23
2023-05-11T05:30:17.557Z,44.22
2023-05-11T05:32:44.341Z,44.06
2023-05-11T05:35:10.912Z,44.03
2023-05-11T05:37:37.850Z,43.89
2023-05-11T05:40:05.529Z,43.83
2023-05-11T05:42:33.916Z,43.89
2023-05-11T05:45:00.539Z,43.79
2023-05-11T05:47:27.150Z,43.66
2023-05-11T05:49:53.683Z,43.54
2023-05-11T05:52:20.309Z,43.52
2023-05-11T05:54:47.699Z,43.41
2023-05-11T05:57:15.811Z,43.38
2023-05-11T05:59:43.459Z,43.38
2023-05-11T06:02:11.644Z,43.29
2023-05-11T06:04:38.272Z,43.01
2023-05-11T06:07:04.864Z,42.89
2023-05-11T06:09:31.534Z,42.97
2023-05-11T06:11:58.133Z,42.76
2023-05-11T06:14:25.331Z,42.66
2023-05-11T06:16:53.501Z,42.48
2023-05-11T06:19:21.152Z,42.50
2023-05-11T06:21:48.530Z,42.26
2023-05-11T06:24:15.358Z,42.31
2023-05-11T06:26:43.092Z,42.04
2023-05-11T06:29:10.085Z,42.09
2023-05-11T06:31:37.003Z,41.94
2023-05-11T06:34:04.482Z,41.88
2023-05-11T06:36:32.254Z,41.75
2023-05-11T06:38:59.321Z,41.69
2023-05-11T06:41:26.757Z,41.55
2023-05-11T06:43:53.277Z,41.56
2023-05-11T06:46:27.568Z,41.40
2023-05-11T06:48:54.304Z,41.27
2023-05-11T06:51:21.961Z,41.37
2023-05-11T06:53:48.819Z,41.21
2023-05-11T06:56:15.893Z,40.99
2023-05-11T06:58:43.093Z,40.73
2023-05-11T07:01:11.418Z,40.27
2023-05-11T07:03:38.159Z,39.89
2023-05-11T07:06:05.108Z,39.91
2023-05-11T07:08:31.841Z,39.61
2023-05-11T07:10:58.420Z,39.25
2023-05-11T07:13:25.152Z,38.79
2023-05-11T07:15:52.003Z,38.32
2023-05-11T07:18:18.632Z,37.50
2023-05-11T07:20:49.948Z,36.49
2023-05-11T07:23:17.134Z,36.42
2023-05-11T07:25:43.892Z,36.57
2023-05-11T07:28:10.595Z,36.12
2023-05-11T07:30:38.476Z,35.69
2023-05-11T07:33:06.724Z,35.16
2023-05-11T07:35:33.784Z,34.75
2023-05-11T07:38:00.853Z,34.24
2023-05-11T07:40:28.721Z,34.15
2023-05-11T07:42:58.680Z,34.34
2023-05-11T07:45:26.473Z,34.41
2023-05-11T07:47:53.743Z,34.17
2023-05-11T07:50:24.463Z,33.37
2023-05-11T07:52:51.834Z,32.30
2023-05-11T07:55:20.652Z,32.18
2023-05-11T07:57:48.435Z,32.43
2023-05-11T08:00:15.670Z,32.36
2023-05-11T08:02:42.923Z,32.23
2023-05-11T08:05:09.863Z,32.04
2023-05-11T08:07:37.877Z,31.78
2023-05-11T08:10:06.970Z,31.57
2023-05-11T08:12:33.777Z,31.46
2023-05-11T08:15:00.342Z,31.17
2023-05-11T08:17:27.477Z,30.19
2023-05-11T08:19:54.408Z,30.05
2023-05-11T08:22:22.528Z,29.85
2023-05-11T08:24:50.874Z,29.98
2023-05-11T08:27:17.970Z,29.98
2023-05-11T08:29:45.178Z,29.94
2023-05-11T08:32:11.797Z,29.64
2023-05-11T08:34:38.702Z,29.39
2023-05-11T08:37:05.556Z,29.03
2023-05-11T08:39:46.590Z,28.61
2023-05-11T08:42:16.642Z,28.62
2023-05-11T08:44:44.672Z,28.80
2023-05-11T08:47:22.868Z,28.71
2023-05-11T08:49:51.785Z,28.88
2023-05-11T08:52:18.826Z,28.65
2023-05-11T08:54:46.382Z,28.39
2023-05-11T08:57:14.822Z,28.34
2023-05-11T08:59:44.540Z,28.50
2023-05-11T09:02:16.706Z,28.15
2023-05-11T09:04:46.866Z,27.90
2023-05-11T09:07:22.342Z,27.88
2023-05-11T09:09:49.030Z,27.28
2023-05-11T09:12:17.025Z,27.13
2023-05-11T09:14:44.542Z,27.06
2023-05-11T09:17:11.766Z,27.80
2023-05-11T09:19:57.717Z,28.27
2023-05-11T09:22:24.525Z,27.27
2023-05-11T09:24:51.413Z,26.86
2023-05-11T09:27:21.318Z,27.32
2023-05-11T09:29:51.835Z,27.76
2023-05-11T09:32:18.892Z,28.27
2023-05-11T09:34:45.916Z,28.08
2023-05-11T09:37:18.387Z,27.64
2023-05-11T09:40:13.995Z,27.17
2023-05-11T09:42:31.868Z,26.89
2023-05-11T09:44:58.622Z,26.69
2023-05-11T09:47:25.350Z,26.15
2023-05-11T09:49:52.044Z,26.39
2023-05-11T09:52:21.049Z,26.19
2023-05-11T09:54:51.151Z,26.44
2023-05-11T09:57:27.231Z,26.42
2023-05-11T09:59:56.554Z,26.65
2023-05-11T10:02:25.268Z,26.61
2023-05-11T10:04:54.853Z,26.57
2023-05-11T10:07:24.325Z,26.96
2023-05-11T10:09:53.837Z,26.82
2023-05-11T10:12:22.207Z,26.56
2023-05-11T10:14:52.014Z,26.57
2023-05-11T10:17:20.779Z,25.94
2023-05-11T10:19:48.997Z,25.64
2023-05-11T10:22:17.653Z,25.84
2023-05-11T10:24:44.576Z,25.71
2023-05-11T10:27:12.966Z,25.44
2023-05-11T10:29:40.020Z,25.84
2023-05-11T10:32:07.954Z,25.64
2023-05-11T10:34:34.708Z,24.75
2023-05-11T10:37:02.550Z,24.99
2023-05-11T10:39:30.504Z,25.89
2023-05-11T10:42:36.302Z,26.04
2023-05-11T10:45:36.006Z,26.09
2023-05-11T10:48:30.241Z,25.95
2023-05-11T10:51:17.333Z,25.07
2023-05-11T10:54:09.979Z,24.62
2023-05-11T10:56:54.845Z,24.91
2023-05-11T10:59:24.423Z,25.31
2023-05-11T11:01:52.433Z,25.69
2023-05-11T11:04:20.556Z,26.05
2023-05-11T11:06:47.246Z,25.33
2023-05-11T11:09:16.236Z,24.71
2023-05-11T11:11:50.996Z,25.08
2023-05-11T11:14:19.628Z,25.57
2023-05-11T11:17:25.432Z,25.85
2023-05-11T11:19:52.257Z,25.27
2023-05-11T11:22:41.716Z,24.76
2023-05-11T11:25:09.691Z,25.12
2023-05-11T11:27:45.364Z,25.14
2023-05-11T11:30:25.491Z,24.48
2023-05-11T11:32:54.147Z,25.01
2023-05-11T11:35:39.296Z,24.87
2023-05-11T11:38:14.346Z,24.46
2023-05-11T11:40:51.157Z,24.86
2023-05-11T11:43:21.202Z,24.42
2023-05-11T11:46:03.192Z,24.99
2023-05-11T11:48:41.427Z,25.31
2023-05-11T11:51:13.178Z,25.34
2023-05-11T11:53:41.230Z,25.55
2023-05-11T11:56:13.963Z,25.47
2023-05-11T11:58:44.153Z,25.37
2023-05-11T12:01:14.760Z,25.15
2023-05-11T12:03:43.994Z,25.45
2023-05-11T12:06:12.062Z,25.29
2023-05-11T12:08:40.500Z,25.13
2023-05-11T12:11:08.001Z,24.91
2023-05-11T12:13:35.571Z,24.94
2023-05-11T12:16:14.498Z,25.22
2023-05-11T12:18:42.967Z,25.26
2023-05-11T12:21:23.592Z,25.30
2023-05-11T12:23:54.878Z,24.93
2023-05-11T12:26:23.521Z,24.49
2023-05-11T12:29:08.425Z,24.58
2023-05-11T12:31:39.524Z,24.44
2023-05-11T12:34:06.361Z,24.36
2023-05-11T12:36:34.456Z,24.91
2023-05-11T12:39:01.170Z,24.80
2023-05-11T12:41:28.070Z,25.00
2023-05-11T12:43:56.170Z,25.19
2023-05-11T12:46:23.582Z,25.18
2023-05-11T12:48:51.537Z,24.81
2023-05-11T12:51:42.110Z,24.46
2023-05-11T12:54:08.878Z,24.55
2023-05-11T12:56:48.798Z,24.81
2023-05-11T12:59:35.545Z,25.02
2023-05-11T13:02:16.005Z,25.29
2023-05-11T13:04:44.019Z,25.09
2023-05-11T13:07:11.756Z,25.10
2023-05-11T13:09:39.516Z,25.36
2023-05-11T13:12:20.852Z,25.18
2023-05-11T13:15:04.497Z,25.39
2023-05-11T13:17:32.596Z,25.59
2023-05-11T13:20:22.109Z,25.47
2023-05-11T13:22:49.762Z,25.27
2023-05-11T13:25:19.571Z,25.22
2023-05-11T13:27:46.518Z,25.38
2023-05-11T13:30:13.717Z,25.50
2023-05-11T13:32:40.458Z,24.76
2023-05-11T13:35:07.292Z,25.14
2023-05-11T13:37:33.878Z,25.35
2023-05-11T13:40:00.887Z,25.14
2023-05-11T13:42:28.500Z,25.14
2023-05-11T13:44:55.308Z,25.33
2023-05-11T13:47:22.194Z,25.38
2023-05-11T13:49:48.949Z,25.42
2023-05-11T13:52:15.922Z,25.71
2023-05-11T13:54:42.512Z,25.75
2023-05-11T13:57:09.203Z,25.72
2023-05-11T13:59:35.904Z,25.58
2023-05-11T14:02:02.607Z,25.43
2023-05-11T14:04:29.394Z,25.63
2023-05-11T14:06:56.102Z,25.54
2023-05-11T14:09:23.427Z,25.44
2023-05-11T14:11:50.664Z,25.72
2023-05-11T14:14:17.558Z,25.88
2023-05-11T14:16:44.249Z,26.05
2023-05-11T14:19:10.839Z,25.98
2023-05-11T14:21:37.886Z,26.01
2023-05-11T14:24:12.263Z,26.21
2023-05-11T14:26:40.233Z,26.41
2023-05-11T14:29:07.001Z,26.57
2023-05-11T14:31:34.907Z,26.49
2023-05-11T14:34:02.865Z,26.64
2023-05-11T14:36:29.886Z,26.54
2023-05-11T14:38:56.646Z,26.59
2023-05-11T14:41:23.544Z,26.64
2023-05-11T14:43:50.428Z,26.62
2023-05-11T14:46:17.810Z,26.50
2023-05-11T14:48:44.549Z,26.65
2023-05-11T14:51:11.200Z,26.55
2023-05-11T14:53:37.781Z,26.80
2023-05-11T14:56:04.605Z,26.63
2023-05-11T14:58:31.171Z,26.74
2023-05-11T15:00:57.892Z,26.68
2023-05-11T15:03:25.196Z,26.50
2023-05-11T15:05:52.054Z,26.65
2023-05-11T15:08:29.085Z,26.83
2023-05-11T15:10:57.549Z,26.71
2023-05-11T15:13:24.650Z,27.04
2023-05-11T15:15:51.778Z,26.92
2023-05-11T15:18:18.969Z,26.93
2023-05-11T15:20:46.162Z,26.92
2023-05-11T15:23:16.583Z,26.93
2023-05-11T15:25:44.700Z,27.00
2023-05-11T15:28:11.766Z,27.16
2023-05-11T15:30:38.701Z,27.40
2023-05-11T15:33:05.473Z,27.33
2023-05-11T15:35:34.655Z,27.31
2023-05-11T15:38:01.324Z,27.50
2023-05-11T15:40:31.047Z,27.30
2023-05-11T15:42:58.875Z,27.43
2023-05-11T15:45:26.358Z,27.56
2023-05-11T15:47:54.121Z,27.53
2023-05-11T15:50:21.139Z,27.61
2023-05-11T15:52:48.040Z,27.55
2023-05-11T15:55:14.839Z,27.40
2023-05-11T15:57:41.673Z,27.36
2023-05-11T16:00:10.617Z,27.67
2023-05-11T16:02:37.506Z,27.70
2023-05-11T16:05:04.636Z,27.73
2023-05-11T16:07:31.470Z,28.06
2023-05-11T16:09:58.049Z,28.07
2023-05-11T16:12:24.626Z,27.87
2023-05-11T16:14:51.281Z,28.03
2023-05-11T16:17:18.029Z,28.19
2023-05-11T16:19:44.773Z,27.93
2023-05-11T16:22:11.461Z,27.88
2023-05-11T16:24:39.050Z,27.97
2023-05-11T16:27:05.775Z,27.92
2023-05-11T16:29:32.491Z,27.84
2023-05-11T16:31:59.159Z,28.12
2023-05-11T16:34:26.958Z,28.15
2023-05-11T16:36:53.583Z,27.98
2023-05-11T16:39:20.251Z,28.22
2023-05-11T16:41:46.783Z,28.23
2023-05-11T16:44:13.352Z,28.32
2023-05-11T16:46:39.987Z,28.36
2023-05-11T16:49:06.645Z,28.37
2023-05-11T16:51:34.068Z,28.30
2023-05-11T16:54:00.890Z,28.49
2023-05-11T16:56:27.581Z,28.57
2023-05-11T16:58:54.197Z,28.47
2023-05-11T17:01:20.824Z,28.29
2023-05-11T17:03:47.721Z,28.41
2023-05-11T17:06:18.975Z,28.62
2023-05-11T17:08:46.842Z,28.76
2023-05-11T17:11:13.440Z,28.57
2023-05-11T17:13:40.091Z,28.63
2023-05-11T17:16:07.205Z,28.56
2023-05-11T17:18:33.889Z,28.58
2023-05-11T17:21:00.772Z,28.83
2023-05-11T17:23:27.593Z,28.94
2023-05-11T17:25:54.391Z,28.75
2023-05-11T17:28:22.279Z,28.86
2023-05-11T17:30:52.742Z,28.79
2023-05-11T17:33:19.715Z,28.86
2023-05-11T17:35:46.486Z,28.97
2023-05-11T17:38:13.105Z,29.01
2023-05-11T17:40:39.762Z,29.25
2023-05-11T17:43:08.735Z,29.34
2023-05-11T17:45:35.571Z,29.37
2023-05-11T17:48:02.280Z,29.37
2023-05-11T17:50:29.073Z,29.45
2023-05-11T17:52:55.591Z,29.41
2023-05-11T17:55:22.202Z,29.49
2023-05-11T17:57:51.427Z,29.56
2023-05-11T18:00:18.579Z,29.50
2023-05-11T18:02:51.190Z,29.68
2023-05-11T18:05:18.369Z,29.63
2023-05-11T18:07:44.956Z,29.69
2023-05-11T18:10:12.122Z,29.63
2023-05-11T18:12:38.718Z,29.81
2023-05-11T18:15:05.810Z,29.83
2023-05-11T18:17:32.786Z,29.86
2023-05-11T18:19:59.401Z,30.12
2023-05-11T18:22:25.971Z,30.15
2023-05-11T18:24:52.478Z,30.31
2023-05-11T18:27:19.112Z,30.43
2023-05-11T18:29:45.814Z,30.52
2023-05-11T18:32:12.442Z,30.29
2023-05-11T18:34:42.414Z,30.51
2023-05-11T18:37:09.450Z,30.75
2023-05-11T18:39:36.190Z,30.81
2023-05-11T18:42:04.901Z,30.74
2023-05-11T18:44:32.142Z,30.88
2023-05-11T18:46:59.478Z,31.00
2023-05-11T18:49:26.271Z,31.03
2023-05-11T18:51:53.008Z,31.13
2023-05-11T18:54:19.681Z,31.38
2023-05-11T18:56:46.367Z,31.29
2023-05-11T18:59:12.916Z,31.46
2023-05-11T19:01:47.641Z,31.61
2023-05-11T19:04:17.655Z,31.62
2023-05-11T19:06:44.215Z,31.80
2023-05-11T19:09:10.794Z,31.82
2023-05-11T19:11:37.893Z,32.08
2023-05-11T19:14:04.676Z,32.25
2023-05-11T19:16:32.729Z,32.25
2023-05-11T19:18:59.694Z,32.32
2023-05-11T19:21:26.653Z,32.48
2023-05-11T19:23:53.451Z,32.56
2023-05-11T19:26:20.141Z,32.72
2023-05-11T19:28:46.733Z,32.72
2023-05-11T19:31:13.602Z,32.79
2023-05-11T19:33:40.517Z,32.88
2023-05-11T19:36:07.270Z,32.98
2023-05-11T19:38:35.895Z,32.94
2023-05-11T19:41:03.150Z,33.00
2023-05-11T19:43:29.852Z,33.12
2023-05-11T19:45:56.512Z,33.44
2023-05-11T19:48:23.293Z,33.54
2023-05-11T19:50:49.792Z,33.54
2023-05-11T19:53:16.578Z,33.72
2023-05-11T19:55:45.432Z,33.69
2023-05-11T19:58:13.982Z,33.81
2023-05-11T20:00:43.484Z,33.87
2023-05-11T20:03:10.306Z,34.08
2023-05-11T20:05:37.360Z,34.16
2023-05-11T20:08:06.159Z,34.24
2023-05-11T20:10:33.516Z,34.26
2023-05-11T20:13:03.804Z,34.33
2023-05-11T20:15:31.372Z,34.43
2023-05-11T20:17:58.028Z,34.68
2023-05-11T20:20:24.875Z,34.66
2023-05-11T20:22:52.400Z,34.78
2023-05-11T20:25:19.223Z,34.83
2023-05-11T20:27:46.570Z,34.97
2023-05-11T20:30:13.736Z,35.10
2023-05-11T20:35:28.027Z,35.18
2023-05-11T20:37:55.241Z,35.32
2023-05-11T20:40:22.198Z,35.43
2023-05-11T20:42:49.008Z,35.53
2023-05-11T20:45:15.812Z,35.39
2023-05-11T20:47:42.772Z,35.63
2023-05-11T20:50:10.233Z,35.72
2023-05-11T20:52:37.375Z,35.82
2023-05-11T20:55:04.602Z,35.79
2023-05-11T20:57:31.495Z,35.87
2023-05-11T21:02:27.721Z,36.08
2023-05-11T21:04:54.591Z,36.15
2023-05-11T21:07:23.056Z,36.18
2023-05-11T21:09:49.582Z,36.16
2023-05-11T21:12:16.323Z,36.34
2023-05-11T21:14:42.905Z,36.41
2023-05-11T21:17:09.604Z,36.52
2023-05-11T21:19:36.330Z,36.55
2023-05-11T21:22:03.180Z,36.73
2023-05-11T21:24:29.951Z,36.74
2023-05-11T21:26:56.907Z,36.85
2023-05-11T21:29:23.552Z,36.80
2023-05-11T21:31:50.279Z,36.94
2023-05-11T21:34:17.306Z,37.01
2023-05-11T21:36:45.637Z,37.03
2023-05-11T21:39:15.023Z,37.14
2023-05-11T21:41:42.022Z,37.30
2023-05-11T21:44:08.906Z,37.34
2023-05-11T21:46:35.661Z,37.31
2023-05-11T21:49:02.283Z,37.37
2023-05-11T21:51:28.979Z,37.42
2023-05-11T21:53:55.727Z,37.55
2023-05-11T21:56:23.452Z,37.56
2023-05-11T21:58:50.309Z,37.65
2023-05-11T22:01:17.182Z,37.70
2023-05-11T22:03:44.031Z,37.77
2023-05-11T22:06:11.091Z,37.86
2023-05-11T22:08:37.772Z,37.98
2023-05-11T22:11:04.607Z,38.03
2023-05-11T22:13:31.107Z,38.09
2023-05-11T22:15:57.776Z,38.14
2023-05-11T22:18:24.835Z,38.20
2023-05-11T22:20:51.472Z,38.23
2023-05-11T22:23:18.061Z,38.32
2023-05-11T22:25:44.585Z,38.39
2023-05-11T22:28:11.113Z,38.41
2023-05-11T22:30:37.745Z,38.49
2023-05-11T22:33:04.334Z,38.49
2023-05-11T22:35:31.043Z,38.60
2023-05-11T22:37:57.656Z,38.67
2023-05-11T22:40:24.169Z,38.79
2023-05-11T22:42:50.665Z,38.83
2023-05-11T22:45:17.329Z,38.89
2023-05-11T22:47:44.231Z,38.95
2023-05-11T22:50:12.070Z,39.03
2023-05-11T22:52:38.768Z,39.13
2023-05-11T22:55:05.921Z,39.21
2023-05-11T22:57:32.554Z,39.19
2023-05-11T22:59:59.166Z,39.27
2023-05-11T23:02:25.857Z,39.34
2023-05-11T23:04:53.059Z,39.44
2023-05-11T23:07:19.985Z,39.48
2023-05-11T23:09:46.902Z,39.56
2023-05-11T23:12:13.444Z,39.59
2023-05-11T23:14:39.952Z,39.60
2023-05-11T23:17:06.579Z,39.70
2023-05-11T23:19:33.734Z,39.76
2023-05-11T23:22:00.765Z,39.80
2023-05-11T23:24:28.862Z,39.87
2023-05-11T23:26:55.483Z,39.89
2023-05-11T23:29:22.069Z,39.95
2023-05-11T23:31:48.950Z,40.02
2023-05-11T23:34:15.740Z,40.11
2023-05-11T23:36:42.407Z,40.12
2023-05-11T23:39:09.565Z,40.17
2023-05-11T23:41:36.366Z,40.16
2023-05-11T23:44:03.272Z,40.17
2023-05-11T23:46:29.940Z,40.22
2023-05-11T23:48:56.428Z,40.31
2023-05-11T23:51:23.161Z,40.34
2023-05-11T23:53:49.947Z,40.33
2023-05-11T23:56:16.542Z,40.41
2023-05-11T23:58:45.664Z,40.44
